createdAt,value
2018-05-07T00:00:57.399Z,7.45
2018-05-07T00:01:57.397Z,7.42
2018-05-07T00:02:57.435Z,7.38
2018-05-07T00:03:57.470Z,7.34
2018-05-07T00:04:57.439Z,7.29
2018-05-07T00:05:57.522Z,7.26
2018-05-07T00:06:57.472Z,7.22
2018-05-07T00:07:57.550Z,7.15
2018-05-07T00:08:57.525Z,7.08
2018-05-07T00:09:57.522Z,7.05
2018-05-07T00:10:57.443Z,7.02
2018-05-07T00:11:57.387Z,7.00
2018-05-07T00:12:57.502Z,7.00
2018-05-07T00:13:57.511Z,6.98
2018-05-07T00:14:57.471Z,7.04
2018-05-07T00:15:57.379Z,7.13
2018-05-07T00:16:57.472Z,7.15
2018-05-07T00:17:57.415Z,7.19
2018-05-07T00:18:57.411Z,7.13
2018-05-07T00:19:57.478Z,7.12
2018-05-07T00:20:57.480Z,7.08
2018-05-07T00:21:57.380Z,7.01
2018-05-07T00:22:57.415Z,7.02
2018-05-07T00:23:57.416Z,6.97
2018-05-07T00:24:57.378Z,6.94
2018-05-07T00:25:57.365Z,6.91
2018-05-07T00:26:57.399Z,6.97
2018-05-07T00:27:57.456Z,7.01
2018-05-07T00:28:57.388Z,6.97
2018-05-07T00:29:57.404Z,6.94
2018-05-07T00:30:57.429Z,6.91
2018-05-07T00:31:57.447Z,6.89
2018-05-07T00:32:57.390Z,6.86
2018-05-07T00:33:57.450Z,6.82
2018-05-07T00:34:57.550Z,6.79
2018-05-07T00:35:57.443Z,6.78
2018-05-07T00:36:57.516Z,6.74
2018-05-07T00:37:57.524Z,6.72
2018-05-07T00:38:57.525Z,6.68
2018-05-07T00:39:57.492Z,6.64
2018-05-07T00:40:57.519Z,6.64
2018-05-07T00:41:57.471Z,6.64
2018-05-07T00:42:57.567Z,6.64
2018-05-07T00:43:57.461Z,6.61
2018-05-07T00:44:57.531Z,6.56
2018-05-07T00:45:57.512Z,6.56
2018-05-07T00:46:57.495Z,6.56
2018-05-07T00:47:57.538Z,6.52
2018-05-07T00:48:57.513Z,6.49
2018-05-07T00:49:57.470Z,6.47
2018-05-07T00:50:57.501Z,6.41
2018-05-07T00:51:57.474Z,6.38
2018-05-07T00:52:57.462Z,6.36
2018-05-07T00:53:57.530Z,6.34
2018-05-07T00:54:57.474Z,6.33
2018-05-07T00:55:57.479Z,6.31
2018-05-07T00:56:57.418Z,6.33
2018-05-07T00:57:57.423Z,6.33
2018-05-07T00:58:57.427Z,6.30
2018-05-07T00:59:57.496Z,6.29
2018-05-07T01:00:57.501Z,6.26
2018-05-07T01:01:57.423Z,6.25
2018-05-07T01:02:57.390Z,6.23
2018-05-07T01:03:57.465Z,6.26
2018-05-07T01:04:57.410Z,6.30
2018-05-07T01:05:57.431Z,6.36
2018-05-07T01:06:57.507Z,6.38
2018-05-07T01:07:57.555Z,6.37
2018-05-07T01:08:57.430Z,6.38
2018-05-07T01:09:57.413Z,6.37
2018-05-07T01:10:57.474Z,6.33
2018-05-07T01:11:57.512Z,6.31
2018-05-07T01:12:57.520Z,6.27
2018-05-07T01:13:57.536Z,6.22
2018-05-07T01:14:57.539Z,6.19
2018-05-07T01:15:57.488Z,6.19
2018-05-07T01:16:57.508Z,6.22
2018-05-07T01:17:57.525Z,6.19
2018-05-07T01:18:57.485Z,6.26
2018-05-07T01:19:57.554Z,6.25
2018-05-07T01:20:57.548Z,6.23
2018-05-07T01:21:57.517Z,6.22
2018-05-07T01:22:57.542Z,6.18
2018-05-07T01:23:57.542Z,6.09
2018-05-07T01:24:57.563Z,6.06
2018-05-07T01:25:57.516Z,6.11
2018-05-07T01:26:57.456Z,6.18
2018-05-07T01:27:57.521Z,6.25
2018-05-07T01:28:57.486Z,6.25
2018-05-07T01:29:57.456Z,6.27
2018-05-07T01:30:57.457Z,6.25
2018-05-07T01:31:57.526Z,6.20
2018-05-07T01:32:57.525Z,6.14
2018-05-07T01:33:57.525Z,6.06
2018-05-07T01:34:57.531Z,6.02
2018-05-07T01:35:57.463Z,5.96
2018-05-07T01:36:57.557Z,5.92
2018-05-07T01:37:57.564Z,5.91
2018-05-07T01:38:57.528Z,5.86
2018-05-07T01:39:57.447Z,5.84
2018-05-07T01:40:57.527Z,5.79
2018-05-07T01:41:57.529Z,5.78
2018-05-07T01:42:57.530Z,5.75
2018-05-07T01:43:57.573Z,5.77
2018-05-07T01:44:57.516Z,5.86
2018-05-07T01:45:57.491Z,5.96
2018-05-07T01:46:57.489Z,5.96
2018-05-07T01:47:57.460Z,5.97
2018-05-07T01:48:57.455Z,5.93
2018-05-07T01:49:57.527Z,5.89
2018-05-07T01:50:57.461Z,5.84
2018-05-07T01:51:57.529Z,5.84
2018-05-07T01:52:57.442Z,5.82
2018-05-07T01:53:57.497Z,5.82
2018-05-07T01:54:57.529Z,5.92
2018-05-07T01:55:57.491Z,6.00
2018-05-07T01:56:57.493Z,6.08
2018-05-07T01:57:57.442Z,6.06
2018-05-07T01:58:57.496Z,6.06
2018-05-07T01:59:57.540Z,6.06
2018-05-07T02:00:57.566Z,6.09
2018-05-07T02:01:57.540Z,6.14
2018-05-07T02:02:57.505Z,6.12
2018-05-07T02:03:57.508Z,6.09
2018-05-07T02:04:57.524Z,6.09
2018-05-07T02:05:57.445Z,6.08
2018-05-07T02:06:57.495Z,6.08
2018-05-07T02:07:57.550Z,6.06
2018-05-07T02:08:57.482Z,6.03
2018-05-07T02:09:57.560Z,6.00
2018-05-07T02:10:57.548Z,5.97
2018-05-07T02:11:57.485Z,6.02
2018-05-07T02:12:57.486Z,6.04
2018-05-07T02:13:57.486Z,6.02
2018-05-07T02:14:57.482Z,6.02
2018-05-07T02:15:57.552Z,5.99
2018-05-07T02:16:57.595Z,6.00
2018-05-07T02:17:57.526Z,5.97
2018-05-07T02:18:57.525Z,6.00
2018-05-07T02:19:57.555Z,6.08
2018-05-07T02:20:57.556Z,6.12
2018-05-07T02:21:57.461Z,6.12
2018-05-07T02:22:57.560Z,6.09
2018-05-07T02:23:57.536Z,6.08
2018-05-07T02:24:57.557Z,6.03
2018-05-07T02:25:57.461Z,6.02
2018-05-07T02:26:57.522Z,5.99
2018-05-07T02:27:57.515Z,5.96
2018-05-07T02:28:57.535Z,5.91
2018-05-07T02:29:57.461Z,5.88
2018-05-07T02:30:57.565Z,5.82
2018-05-07T02:31:57.527Z,5.81
2018-05-07T02:32:57.523Z,5.77
2018-05-07T02:33:57.530Z,5.74
2018-05-07T02:34:57.563Z,5.73
2018-05-07T02:35:57.536Z,5.70
2018-05-07T02:36:57.601Z,5.78
2018-05-07T02:37:57.589Z,5.86
2018-05-07T02:38:57.677Z,5.85
2018-05-07T02:39:57.547Z,5.84
2018-05-07T02:40:57.493Z,5.85
2018-05-07T02:41:57.610Z,5.96
2018-05-07T02:42:57.567Z,5.95
2018-05-07T02:43:57.568Z,5.93
2018-05-07T02:44:57.547Z,5.88
2018-05-07T02:45:57.470Z,5.82
2018-05-07T02:46:57.493Z,5.74
2018-05-07T02:47:57.537Z,5.70
2018-05-07T02:48:57.538Z,5.68
2018-05-07T02:49:57.475Z,5.64
2018-05-07T02:50:57.493Z,5.59
2018-05-07T02:51:57.500Z,5.56
2018-05-07T02:52:57.619Z,5.53
2018-05-07T02:53:57.617Z,5.49
2018-05-07T02:54:57.531Z,5.45
2018-05-07T02:55:57.577Z,5.41
2018-05-07T02:56:57.617Z,5.41
2018-05-07T02:57:57.556Z,5.40
2018-05-07T02:58:57.621Z,5.41
2018-05-07T02:59:57.614Z,5.38
2018-05-07T03:00:57.576Z,5.37
2018-05-07T03:01:57.520Z,5.33
2018-05-07T03:02:57.546Z,5.27
2018-05-07T03:03:57.581Z,5.25
2018-05-07T03:04:57.584Z,5.22
2018-05-07T03:05:57.576Z,5.18
2018-05-07T03:06:57.537Z,5.18
2018-05-07T03:07:57.515Z,5.19
2018-05-07T03:08:57.592Z,5.21
2018-05-07T03:09:57.588Z,5.21
2018-05-07T03:10:57.519Z,5.25
2018-05-07T03:11:57.616Z,5.25
2018-05-07T03:12:57.599Z,5.21
2018-05-07T03:13:57.591Z,5.14
2018-05-07T03:14:57.525Z,5.10
2018-05-07T03:15:57.597Z,5.07
2018-05-07T03:16:57.524Z,5.03
2018-05-07T03:17:57.627Z,5.06
2018-05-07T03:18:57.626Z,5.07
2018-05-07T03:19:57.558Z,5.07
2018-05-07T03:20:57.516Z,5.11
2018-05-07T03:21:57.621Z,5.14
2018-05-07T03:22:57.639Z,5.15
2018-05-07T03:23:57.499Z,5.16
2018-05-07T03:24:57.629Z,5.15
2018-05-07T03:25:57.625Z,5.16
2018-05-07T03:26:57.611Z,5.15
2018-05-07T03:27:57.600Z,5.11
2018-05-07T03:28:57.536Z,5.09
2018-05-07T03:29:57.532Z,5.03
2018-05-07T03:30:57.533Z,4.99
2018-05-07T03:31:57.538Z,4.95
2018-05-07T03:32:57.532Z,4.89
2018-05-07T03:33:57.604Z,4.84
2018-05-07T03:34:57.604Z,4.80
2018-05-07T03:35:57.613Z,4.81
2018-05-07T03:36:57.537Z,4.81
2018-05-07T03:37:57.528Z,4.80
2018-05-07T03:38:57.639Z,4.77
2018-05-07T03:39:57.539Z,4.74
2018-05-07T03:40:57.576Z,4.70
2018-05-07T03:41:57.540Z,4.69
2018-05-07T03:42:57.572Z,4.70
2018-05-07T03:43:57.637Z,4.70
2018-05-07T03:44:57.580Z,4.69
2018-05-07T03:45:57.643Z,4.67
2018-05-07T03:46:57.577Z,4.69
2018-05-07T03:47:57.612Z,4.67
2018-05-07T03:48:57.552Z,4.66
2018-05-07T03:49:57.550Z,4.69
2018-05-07T03:50:57.551Z,4.69
2018-05-07T03:51:57.613Z,4.66
2018-05-07T03:52:57.549Z,4.62
2018-05-07T03:53:57.614Z,4.59
2018-05-07T03:54:57.615Z,4.59
2018-05-07T03:55:57.548Z,4.59
2018-05-07T03:56:57.551Z,4.57
2018-05-07T03:57:57.614Z,4.57
2018-05-07T03:58:57.549Z,4.52
2018-05-07T03:59:57.620Z,4.50
2018-05-07T04:00:57.621Z,4.50
2018-05-07T04:01:57.651Z,4.51
2018-05-07T04:02:57.623Z,4.51
2018-05-07T04:03:57.552Z,4.48
2018-05-07T04:04:57.616Z,4.44
2018-05-07T04:05:57.554Z,4.47
2018-05-07T04:06:57.618Z,4.44
2018-05-07T04:07:57.553Z,4.43
2018-05-07T04:08:57.623Z,4.41
2018-05-07T04:09:57.559Z,4.44
2018-05-07T04:10:57.623Z,4.41
2018-05-07T04:11:57.626Z,4.47
2018-05-07T04:12:57.551Z,4.50
2018-05-07T04:13:57.563Z,4.54
2018-05-07T04:14:57.634Z,4.59
2018-05-07T04:15:57.558Z,4.60
2018-05-07T04:16:57.628Z,4.62
2018-05-07T04:17:57.602Z,4.63
2018-05-07T04:18:57.525Z,4.63
2018-05-07T04:19:57.589Z,4.66
2018-05-07T04:20:57.602Z,4.67
2018-05-07T04:21:57.596Z,4.66
2018-05-07T04:22:57.595Z,4.67
2018-05-07T04:23:57.663Z,4.70
2018-05-07T04:24:57.669Z,4.70
2018-05-07T04:25:57.597Z,4.70
2018-05-07T04:26:57.637Z,4.69
2018-05-07T04:27:57.672Z,4.69
2018-05-07T04:28:57.612Z,4.66
2018-05-07T04:29:57.674Z,4.66
2018-05-07T04:30:57.635Z,4.62
2018-05-07T04:31:57.541Z,4.66
2018-05-07T04:32:57.557Z,4.64
2018-05-07T04:33:57.657Z,4.73
2018-05-07T04:34:57.667Z,4.71
2018-05-07T04:35:57.607Z,4.71
2018-05-07T04:36:57.672Z,4.71
2018-05-07T04:37:57.669Z,4.73
2018-05-07T04:38:57.636Z,4.77
2018-05-07T04:39:57.596Z,4.82
2018-05-07T04:40:57.580Z,4.88
2018-05-07T04:41:57.543Z,4.92
2018-05-07T04:42:57.598Z,4.95
2018-05-07T04:43:57.655Z,4.95
2018-05-07T04:44:57.548Z,4.95
2018-05-07T04:45:57.677Z,4.93
2018-05-07T04:46:57.643Z,4.92
2018-05-07T04:47:57.721Z,4.92
2018-05-07T04:48:57.660Z,4.93
2018-05-07T04:49:57.674Z,4.98
2018-05-07T04:50:57.679Z,5.10
2018-05-07T04:51:57.647Z,5.23
2018-05-07T04:52:57.681Z,5.29
2018-05-07T04:53:57.611Z,5.38
2018-05-07T04:54:57.557Z,5.46
2018-05-07T04:55:57.616Z,5.56
2018-05-07T04:56:57.671Z,5.62
2018-05-07T04:57:57.617Z,5.66
2018-05-07T04:58:57.623Z,5.68
2018-05-07T04:59:57.634Z,5.68
2018-05-07T05:00:57.661Z,5.71
2018-05-07T05:01:57.687Z,5.75
2018-05-07T05:02:57.627Z,5.78
2018-05-07T05:03:57.564Z,5.77
2018-05-07T05:04:57.581Z,5.77
2018-05-07T05:05:57.690Z,5.75
2018-05-07T05:06:57.661Z,5.74
2018-05-07T05:07:57.584Z,5.77
2018-05-07T05:08:57.620Z,5.82
2018-05-07T05:09:57.675Z,5.91
2018-05-07T05:10:57.634Z,6.00
2018-05-07T05:11:57.740Z,6.16
2018-05-07T05:12:57.686Z,6.30
2018-05-07T05:13:57.695Z,6.41
2018-05-07T05:14:57.638Z,6.52
2018-05-07T05:15:57.694Z,6.61
2018-05-07T05:16:57.564Z,6.63
2018-05-07T05:17:57.562Z,6.68
2018-05-07T05:18:57.628Z,6.74
2018-05-07T05:19:57.643Z,6.77
2018-05-07T05:20:57.683Z,6.75
2018-05-07T05:21:57.701Z,6.79
2018-05-07T05:22:57.569Z,6.86
2018-05-07T05:23:57.642Z,6.89
2018-05-07T05:24:57.711Z,6.94
2018-05-07T05:25:57.714Z,6.98
2018-05-07T05:26:57.638Z,7.02
2018-05-07T05:27:57.611Z,7.12
2018-05-07T05:28:57.673Z,7.20
2018-05-07T05:29:57.610Z,7.31
2018-05-07T05:30:57.672Z,7.37
2018-05-07T05:31:57.609Z,7.42
2018-05-07T05:32:57.675Z,7.45
2018-05-07T05:33:57.605Z,7.49
2018-05-07T05:34:57.674Z,7.53
2018-05-07T05:35:57.619Z,7.60
2018-05-07T05:36:57.683Z,7.68
2018-05-07T05:37:57.611Z,7.74
2018-05-07T05:38:57.670Z,7.81
2018-05-07T05:39:57.628Z,7.87
2018-05-07T05:40:57.664Z,7.92
2018-05-07T05:41:57.586Z,7.97
2018-05-07T05:42:57.586Z,8.04
2018-05-07T05:43:57.585Z,8.12
2018-05-07T05:44:57.673Z,8.23
2018-05-07T05:45:57.589Z,8.37
2018-05-07T05:46:57.620Z,8.54
2018-05-07T05:47:57.591Z,8.71
2018-05-07T05:48:57.681Z,8.76
2018-05-07T05:49:57.840Z,8.89
2018-05-07T05:50:57.678Z,9.04
2018-05-07T05:51:57.681Z,9.23
2018-05-07T05:52:57.678Z,9.44
2018-05-07T05:53:57.576Z,9.61
2018-05-07T05:54:57.677Z,9.71
2018-05-07T05:55:57.677Z,9.73
2018-05-07T05:56:57.657Z,9.87
2018-05-07T05:57:57.698Z,9.98
2018-05-07T05:58:57.628Z,10.06
2018-05-07T05:59:57.689Z,10.30
2018-05-07T06:00:57.694Z,10.36
2018-05-07T06:01:57.579Z,10.52
2018-05-07T06:02:57.627Z,10.63
2018-05-07T06:03:57.736Z,10.75
2018-05-07T06:04:57.629Z,10.98
2018-05-07T06:05:57.579Z,11.20
2018-05-07T06:06:57.628Z,11.39
2018-05-07T06:07:57.568Z,11.65
2018-05-07T06:08:57.770Z,11.78
2018-05-07T06:09:57.593Z,12.01
2018-05-07T06:10:57.593Z,12.26
2018-05-07T06:11:57.631Z,12.40
2018-05-07T06:12:57.592Z,12.64
2018-05-07T06:13:57.591Z,12.95
2018-05-07T06:14:57.807Z,13.18
2018-05-07T06:15:57.632Z,13.39
2018-05-07T06:16:57.631Z,13.50
2018-05-07T06:17:57.667Z,13.73
2018-05-07T06:18:57.717Z,13.96
2018-05-07T06:19:57.735Z,14.14
2018-05-07T06:20:57.703Z,14.33
2018-05-07T06:21:57.727Z,14.54
2018-05-07T06:22:57.710Z,14.73
2018-05-07T06:23:57.734Z,14.96
2018-05-07T06:24:57.673Z,15.08
2018-05-07T06:25:57.728Z,15.14
2018-05-07T06:26:57.787Z,14.94
2018-05-07T06:27:57.634Z,14.94
2018-05-07T06:28:57.695Z,15.11
2018-05-07T06:29:57.696Z,15.26
2018-05-07T06:30:57.631Z,15.44
2018-05-07T06:31:57.588Z,15.59
2018-05-07T06:32:57.654Z,15.65
2018-05-07T06:33:57.648Z,15.50
2018-05-07T06:34:57.573Z,15.42
2018-05-07T06:35:57.671Z,15.33
2018-05-07T06:36:57.695Z,15.39
2018-05-07T06:37:57.745Z,15.37
2018-05-07T06:38:57.744Z,15.35
2018-05-07T06:39:57.624Z,15.35
2018-05-07T06:40:57.677Z,15.42
2018-05-07T06:41:57.720Z,15.50
2018-05-07T06:42:57.748Z,15.58
2018-05-07T06:43:57.746Z,15.76
2018-05-07T06:44:57.742Z,15.75
2018-05-07T06:45:57.822Z,15.65
2018-05-07T06:46:57.691Z,15.68
2018-05-07T06:47:57.643Z,15.75
2018-05-07T06:48:57.635Z,15.84
2018-05-07T06:49:57.683Z,15.87
2018-05-07T06:50:57.735Z,16.00
2018-05-07T06:51:57.649Z,16.13
2018-05-07T06:52:57.681Z,16.36
2018-05-07T06:53:57.725Z,16.55
2018-05-07T06:54:57.704Z,16.77
2018-05-07T06:55:57.698Z,16.85
2018-05-07T06:56:57.753Z,16.66
2018-05-07T06:57:57.720Z,16.59
2018-05-07T06:58:57.716Z,16.68
2018-05-07T06:59:57.628Z,16.69
2018-05-07T07:00:57.638Z,16.76
2018-05-07T07:01:57.806Z,16.80
2018-05-07T07:02:57.747Z,16.98
2018-05-07T07:03:57.721Z,17.22
2018-05-07T07:04:57.726Z,17.53
2018-05-07T07:05:57.604Z,17.83
2018-05-07T07:06:57.640Z,18.05
2018-05-07T07:07:57.814Z,18.25
2018-05-07T07:08:57.727Z,18.35
2018-05-07T07:09:57.639Z,18.34
2018-05-07T07:10:57.724Z,18.48
2018-05-07T07:11:57.643Z,18.69
2018-05-07T07:12:57.723Z,18.70
2018-05-07T07:13:57.623Z,18.86
2018-05-07T07:14:57.643Z,19.01
2018-05-07T07:15:57.725Z,18.99
2018-05-07T07:16:57.642Z,18.91
2018-05-07T07:17:57.754Z,18.87
2018-05-07T07:18:57.753Z,18.98
2018-05-07T07:19:57.762Z,19.12
2018-05-07T07:20:57.761Z,19.17
2018-05-07T07:21:57.647Z,19.06
2018-05-07T07:22:57.770Z,19.01
2018-05-07T07:23:57.742Z,19.12
2018-05-07T07:24:57.776Z,19.09
2018-05-07T07:25:57.725Z,19.21
2018-05-07T07:26:57.698Z,19.15
2018-05-07T07:27:57.781Z,18.97
2018-05-07T07:28:57.735Z,18.73
2018-05-07T07:29:57.704Z,18.88
2018-05-07T07:30:57.636Z,18.94
2018-05-07T07:31:57.658Z,18.87
2018-05-07T07:32:57.678Z,18.83
2018-05-07T07:33:57.767Z,18.90
2018-05-07T07:34:57.729Z,18.98
2018-05-07T07:35:57.732Z,19.17
2018-05-07T07:36:57.737Z,19.24
2018-05-07T07:37:57.719Z,19.25
2018-05-07T07:38:57.655Z,19.33
2018-05-07T07:39:57.713Z,19.39
2018-05-07T07:40:57.677Z,19.27
2018-05-07T07:41:57.779Z,19.09
2018-05-07T07:42:57.757Z,19.02
2018-05-07T07:43:57.779Z,19.03
2018-05-07T07:44:57.787Z,19.20
2018-05-07T07:45:57.789Z,19.39
2018-05-07T07:46:57.700Z,19.53
2018-05-07T07:47:57.779Z,19.57
2018-05-07T07:48:57.790Z,19.60
2018-05-07T07:49:57.774Z,19.87
2018-05-07T07:50:57.724Z,19.95
2018-05-07T07:51:57.739Z,19.81
2018-05-07T07:52:57.786Z,19.83
2018-05-07T07:53:57.766Z,19.95
2018-05-07T07:54:57.701Z,19.91
2018-05-07T07:55:57.800Z,19.80
2018-05-07T07:56:57.751Z,19.76
2018-05-07T07:57:57.672Z,19.66
2018-05-07T07:58:57.672Z,19.72
2018-05-07T07:59:57.691Z,19.91
2018-05-07T08:00:57.788Z,20.01
2018-05-07T08:01:57.711Z,20.01
2018-05-07T08:02:57.677Z,20.10
2018-05-07T08:03:57.845Z,20.17
2018-05-07T08:04:57.773Z,20.36
2018-05-07T08:05:57.744Z,20.52
2018-05-07T08:06:57.769Z,20.45
2018-05-07T08:07:57.731Z,20.54
2018-05-07T08:08:57.725Z,20.73
2018-05-07T08:09:57.659Z,20.75
2018-05-07T08:10:57.680Z,20.87
2018-05-07T08:11:57.728Z,20.90
2018-05-07T08:12:57.760Z,20.84
2018-05-07T08:13:57.728Z,20.56
2018-05-07T08:14:57.779Z,20.65
2018-05-07T08:15:57.762Z,20.79
2018-05-07T08:16:57.710Z,21.02
2018-05-07T08:17:57.713Z,21.05
2018-05-07T08:18:57.714Z,20.80
2018-05-07T08:19:57.783Z,20.69
2018-05-07T08:20:57.720Z,20.69
2018-05-07T08:21:57.782Z,20.70
2018-05-07T08:22:57.720Z,20.72
2018-05-07T08:23:57.780Z,20.98
2018-05-07T08:24:57.721Z,20.94
2018-05-07T08:25:57.679Z,21.06
2018-05-07T08:26:57.720Z,21.13
2018-05-07T08:27:57.705Z,21.24
2018-05-07T08:28:57.760Z,21.50
2018-05-07T08:29:57.710Z,21.56
2018-05-07T08:30:57.767Z,21.69
2018-05-07T08:31:57.696Z,21.67
2018-05-07T08:32:57.755Z,21.76
2018-05-07T08:33:57.770Z,21.78
2018-05-07T08:34:57.808Z,21.93
2018-05-07T08:35:57.768Z,22.01
2018-05-07T08:36:57.806Z,21.97
2018-05-07T08:37:57.777Z,21.87
2018-05-07T08:38:57.768Z,21.61
2018-05-07T08:39:57.663Z,21.61
2018-05-07T08:40:57.667Z,21.65
2018-05-07T08:41:57.742Z,21.69
2018-05-07T08:42:57.717Z,21.73
2018-05-07T08:43:57.775Z,21.96
2018-05-07T08:44:57.722Z,22.12
2018-05-07T08:45:57.662Z,22.06
2018-05-07T08:46:57.667Z,22.12
2018-05-07T08:47:57.737Z,22.19
2018-05-07T08:48:57.802Z,22.43
2018-05-07T08:49:57.734Z,22.56
2018-05-07T08:50:57.869Z,22.82
2018-05-07T08:51:57.800Z,22.95
2018-05-07T08:52:57.833Z,22.94
2018-05-07T08:53:57.799Z,23.08
2018-05-07T08:54:57.744Z,22.87
2018-05-07T08:55:57.801Z,22.93
2018-05-07T08:56:57.742Z,23.08
2018-05-07T08:57:57.714Z,23.15
2018-05-07T08:58:57.769Z,23.30
2018-05-07T08:59:57.775Z,23.28
2018-05-07T09:00:57.811Z,23.16
2018-05-07T09:01:57.847Z,23.08
2018-05-07T09:02:57.841Z,22.71
2018-05-07T09:03:57.776Z,22.76
2018-05-07T09:04:57.834Z,22.77
2018-05-07T09:05:57.783Z,22.84
2018-05-07T09:06:57.855Z,22.83
2018-05-07T09:07:57.850Z,23.01
2018-05-07T09:08:57.749Z,22.79
2018-05-07T09:09:57.821Z,22.86
2018-05-07T09:10:57.746Z,22.90
2018-05-07T09:11:57.749Z,22.97
2018-05-07T09:12:57.761Z,23.12
2018-05-07T09:13:57.817Z,23.06
2018-05-07T09:14:57.749Z,23.04
2018-05-07T09:15:57.748Z,23.17
2018-05-07T09:16:57.749Z,23.20
2018-05-07T09:17:57.841Z,23.28
2018-05-07T09:18:57.776Z,23.13
2018-05-07T09:19:57.784Z,23.23
2018-05-07T09:20:57.840Z,23.22
2018-05-07T09:21:57.819Z,23.30
2018-05-07T09:22:57.743Z,23.33
2018-05-07T09:23:57.787Z,23.58
2018-05-07T09:24:57.860Z,23.76
2018-05-07T09:25:57.789Z,23.80
2018-05-07T09:26:57.850Z,23.76
2018-05-07T09:27:57.817Z,23.80
2018-05-07T09:28:57.816Z,23.65
2018-05-07T09:29:57.812Z,23.72
2018-05-07T09:30:57.762Z,23.91
2018-05-07T09:31:57.820Z,23.97
2018-05-07T09:32:57.728Z,24.15
2018-05-07T09:33:57.775Z,24.31
2018-05-07T09:34:57.811Z,24.25
2018-05-07T09:35:57.815Z,24.34
2018-05-07T09:36:57.729Z,24.37
2018-05-07T09:37:57.835Z,24.37
2018-05-07T09:38:57.765Z,24.01
2018-05-07T09:39:57.835Z,24.12
2018-05-07T09:40:57.791Z,24.40
2018-05-07T09:41:57.836Z,24.61
2018-05-07T09:42:57.808Z,24.74
2018-05-07T09:43:57.840Z,24.78
2018-05-07T09:44:57.768Z,24.70
2018-05-07T09:45:57.839Z,24.78
2018-05-07T09:46:57.841Z,24.56
2018-05-07T09:47:57.808Z,24.59
2018-05-07T09:48:57.806Z,24.49
2018-05-07T09:49:57.762Z,24.49
2018-05-07T09:50:57.875Z,24.60
2018-05-07T09:51:57.859Z,24.64
2018-05-07T09:52:57.863Z,24.29
2018-05-07T09:53:57.779Z,24.29
2018-05-07T09:54:57.864Z,24.33
2018-05-07T09:55:57.870Z,24.36
2018-05-07T09:56:57.881Z,24.48
2018-05-07T09:57:57.841Z,24.38
2018-05-07T09:58:57.782Z,24.30
2018-05-07T09:59:57.749Z,24.20
2018-05-07T10:00:57.835Z,24.23
2018-05-07T10:01:57.752Z,24.08
2018-05-07T10:02:57.832Z,24.12
2018-05-07T10:03:57.751Z,24.20
2018-05-07T10:04:57.783Z,24.08
2018-05-07T10:05:57.840Z,24.11
2018-05-07T10:06:57.754Z,24.26
2018-05-07T10:07:57.782Z,24.30
2018-05-07T10:08:57.848Z,24.26
2018-05-07T10:09:57.790Z,24.25
2018-05-07T10:10:57.851Z,24.27
2018-05-07T10:11:57.785Z,24.22
2018-05-07T10:12:57.855Z,24.16
2018-05-07T10:13:57.785Z,24.29
2018-05-07T10:14:57.798Z,24.23
2018-05-07T10:15:57.853Z,24.23
2018-05-07T10:16:57.807Z,24.34
2018-05-07T10:17:57.797Z,24.47
2018-05-07T10:18:57.882Z,24.54
2018-05-07T10:19:57.833Z,24.75
2018-05-07T10:20:57.855Z,24.91
2018-05-07T10:21:57.871Z,24.95
2018-05-07T10:22:57.815Z,24.98
2018-05-07T10:23:57.766Z,24.97
2018-05-07T10:24:57.829Z,24.90
2018-05-07T10:25:57.894Z,24.81
2018-05-07T10:26:57.885Z,24.71
2018-05-07T10:27:57.836Z,24.67
2018-05-07T10:28:57.793Z,24.64
2018-05-07T10:29:57.812Z,24.74
2018-05-07T10:30:57.821Z,24.68
2018-05-07T10:31:57.786Z,24.81
2018-05-07T10:32:57.736Z,24.79
2018-05-07T10:33:57.757Z,24.94
2018-05-07T10:34:57.856Z,25.11
2018-05-07T10:35:57.761Z,25.12
2018-05-07T10:36:57.862Z,25.06
2018-05-07T10:37:57.834Z,24.98
2018-05-07T10:38:57.789Z,24.74
2018-05-07T10:39:57.751Z,24.81
2018-05-07T10:40:57.757Z,24.98
2018-05-07T10:41:57.830Z,25.08
2018-05-07T10:42:57.767Z,25.12
2018-05-07T10:43:57.748Z,25.02
2018-05-07T10:44:57.851Z,24.98
2018-05-07T10:45:57.827Z,25.17
2018-05-07T10:46:57.805Z,25.17
2018-05-07T10:47:57.852Z,25.24
2018-05-07T10:48:57.875Z,25.30
2018-05-07T10:49:57.842Z,25.41
2018-05-07T10:50:57.907Z,25.42
2018-05-07T10:51:57.835Z,25.40
2018-05-07T10:52:57.921Z,25.37
2018-05-07T10:53:57.844Z,25.45
2018-05-07T10:54:57.802Z,25.49
2018-05-07T10:55:57.903Z,25.44
2018-05-07T10:56:57.898Z,25.62
2018-05-07T10:57:57.820Z,25.59
2018-05-07T10:58:57.879Z,25.82
2018-05-07T10:59:57.852Z,25.89
2018-05-07T11:00:57.904Z,25.97
2018-05-07T11:01:57.861Z,25.89
2018-05-07T11:02:57.913Z,25.82
2018-05-07T11:03:57.885Z,25.84
2018-05-07T11:04:57.792Z,25.97
2018-05-07T11:05:57.884Z,25.86
2018-05-07T11:06:57.843Z,25.66
2018-05-07T11:07:57.807Z,25.42
2018-05-07T11:08:57.757Z,25.09
2018-05-07T11:09:57.771Z,25.24
2018-05-07T11:10:57.885Z,25.40
2018-05-07T11:11:57.845Z,25.42
2018-05-07T11:12:57.842Z,25.48
2018-05-07T11:13:57.968Z,25.59
2018-05-07T11:14:57.799Z,25.82
2018-05-07T11:15:57.842Z,26.10
2018-05-07T11:16:57.777Z,26.10
2018-05-07T11:17:57.921Z,25.88
2018-05-07T11:18:57.908Z,26.02
2018-05-07T11:19:57.908Z,26.26
2018-05-07T11:20:57.930Z,26.36
2018-05-07T11:21:57.900Z,26.26
2018-05-07T11:22:57.796Z,26.45
2018-05-07T11:23:57.823Z,25.95
2018-05-07T11:24:57.903Z,25.73
2018-05-07T11:25:57.935Z,25.75
2018-05-07T11:26:57.821Z,25.64
2018-05-07T11:27:57.880Z,25.70
2018-05-07T11:28:57.920Z,25.93
2018-05-07T11:29:57.901Z,26.06
2018-05-07T11:30:57.835Z,26.03
2018-05-07T11:31:57.907Z,26.19
2018-05-07T11:32:57.835Z,26.14
2018-05-07T11:33:57.903Z,26.15
2018-05-07T11:34:57.837Z,26.14
2018-05-07T11:35:57.908Z,26.21
2018-05-07T11:36:57.840Z,26.36
2018-05-07T11:37:57.910Z,26.47
2018-05-07T11:38:57.880Z,26.67
2018-05-07T11:39:57.909Z,26.75
2018-05-07T11:40:57.929Z,26.64
2018-05-07T11:41:57.933Z,26.70
2018-05-07T11:42:57.947Z,26.89
2018-05-07T11:43:57.846Z,26.96
2018-05-07T11:44:57.880Z,26.92
2018-05-07T11:45:57.893Z,27.01
2018-05-07T11:46:57.945Z,26.96
2018-05-07T11:47:57.864Z,26.95
2018-05-07T11:48:57.716Z,27.06
2018-05-07T11:49:57.773Z,27.17
2018-05-07T11:50:57.789Z,26.88
2018-05-07T11:51:57.765Z,26.93
2018-05-07T11:52:57.905Z,26.99
2018-05-07T11:53:57.778Z,27.10
2018-05-07T11:54:57.763Z,27.23
2018-05-07T11:55:57.816Z,26.95
2018-05-07T11:56:57.826Z,26.82
2018-05-07T11:57:57.783Z,26.71
2018-05-07T11:58:57.887Z,26.64
2018-05-07T11:59:57.953Z,26.70
2018-05-07T12:00:57.886Z,26.49
2018-05-07T12:01:57.885Z,26.47
2018-05-07T12:02:57.844Z,26.29
2018-05-07T12:03:57.894Z,26.06
2018-05-07T12:04:57.832Z,26.03
2018-05-07T12:05:57.941Z,25.93
2018-05-07T12:06:57.902Z,26.26
2018-05-07T12:07:57.955Z,26.30
2018-05-07T12:08:57.831Z,26.36
2018-05-07T12:09:57.891Z,26.37
2018-05-07T12:10:57.957Z,26.45
2018-05-07T12:11:57.947Z,26.36
2018-05-07T12:12:57.831Z,26.34
2018-05-07T12:13:57.888Z,26.08
2018-05-07T12:14:57.898Z,26.14
2018-05-07T12:15:57.932Z,26.29
2018-05-07T12:16:57.840Z,26.54
2018-05-07T12:17:57.893Z,26.62
2018-05-07T12:18:57.972Z,26.59
2018-05-07T12:19:57.912Z,26.51
2018-05-07T12:20:57.912Z,26.58
2018-05-07T12:21:57.950Z,26.67
2018-05-07T12:22:57.854Z,26.44
2018-05-07T12:23:57.841Z,26.47
2018-05-07T12:24:57.914Z,26.34
2018-05-07T12:25:57.836Z,26.49
2018-05-07T12:26:57.962Z,26.72
2018-05-07T12:27:57.968Z,27.03
2018-05-07T12:28:57.935Z,27.06
2018-05-07T12:29:57.871Z,27.32
2018-05-07T12:30:57.885Z,27.40
2018-05-07T12:31:58.035Z,27.14
2018-05-07T12:32:57.882Z,27.00
2018-05-07T12:33:57.940Z,26.97
2018-05-07T12:34:57.879Z,27.07
2018-05-07T12:35:57.950Z,27.12
2018-05-07T12:36:57.881Z,26.81
2018-05-07T12:37:57.873Z,26.70
2018-05-07T12:38:58.008Z,26.66
2018-05-07T12:39:57.923Z,26.54
2018-05-07T12:40:57.971Z,26.54
2018-05-07T12:41:57.977Z,26.68
2018-05-07T12:42:57.908Z,26.71
2018-05-07T12:43:57.984Z,26.89
2018-05-07T12:44:57.952Z,26.82
2018-05-07T12:45:57.988Z,26.81
2018-05-07T12:46:57.952Z,26.86
2018-05-07T12:47:57.949Z,26.97
2018-05-07T12:48:57.984Z,26.85
2018-05-07T12:49:57.913Z,26.75
2018-05-07T12:50:57.958Z,26.72
2018-05-07T12:51:57.960Z,26.79
2018-05-07T12:52:57.888Z,26.95
2018-05-07T12:53:57.958Z,26.95
2018-05-07T12:54:57.887Z,27.08
2018-05-07T12:55:57.891Z,27.04
2018-05-07T12:56:57.891Z,26.89
2018-05-07T12:57:57.890Z,27.14
2018-05-07T12:58:57.993Z,27.41
2018-05-07T12:59:58.000Z,27.50
2018-05-07T13:00:57.992Z,27.58
2018-05-07T13:01:57.995Z,27.33
2018-05-07T13:02:57.938Z,27.12
2018-05-07T13:03:57.863Z,27.14
2018-05-07T13:04:57.976Z,27.21